createdAt,value
2023-03-02T00:01:24.280Z,9.95
2023-03-02T00:03:51.099Z,9.30
2023-03-02T00:06:18.023Z,9.80
2023-03-02T00:08:45.392Z,10.15
2023-03-02T00:11:16.846Z,9.48
2023-03-02T00:13:46.138Z,9.38
2023-03-02T00:16:12.881Z,9.95
2023-03-02T00:18:42.044Z,10.38
2023-03-02T00:21:11.247Z,9.73
2023-03-02T00:23:38.554Z,10.18
2023-03-02T00:26:10.391Z,9.90
2023-03-02T00:28:39.184Z,10.50
2023-03-02T00:31:06.639Z,8.98
2023-03-02T00:33:36.120Z,9.40
2023-03-02T00:36:03.526Z,10.10
2023-03-02T00:38:30.478Z,8.68
2023-03-02T00:40:59.601Z,9.63
2023-03-02T00:43:28.934Z,9.32
2023-03-02T00:46:00.185Z,9.10
2023-03-02T00:48:29.178Z,9.50
2023-03-02T00:50:55.789Z,10.07
2023-03-02T00:53:24.723Z,9.57
2023-03-02T00:55:57.293Z,9.43
2023-03-02T00:58:23.953Z,9.77
2023-03-02T01:00:50.602Z,10.38
2023-03-02T01:03:19.964Z,9.45
2023-03-02T01:05:46.961Z,9.43
2023-03-02T01:08:13.694Z,9.32
2023-03-02T01:10:40.801Z,9.27
2023-03-02T01:13:11.968Z,9.38
2023-03-02T01:15:40.736Z,9.43
2023-03-02T01:18:11.611Z,9.38
2023-03-02T01:20:41.195Z,9.10
2023-03-02T01:23:09.983Z,9.23
2023-03-02T01:25:39.639Z,9.85
2023-03-02T01:28:06.249Z,9.20
2023-03-02T01:30:35.399Z,9.27
2023-03-02T01:33:04.300Z,9.50
2023-03-02T01:35:30.938Z,9.00
2023-03-02T01:37:59.950Z,8.70
2023-03-02T01:40:29.105Z,10.20
2023-03-02T01:43:02.282Z,9.40
2023-03-02T01:45:47.840Z,9.27
2023-03-02T01:48:23.658Z,9.10
2023-03-02T01:50:52.668Z,8.85
2023-03-02T01:53:28.429Z,9.93
2023-03-02T01:55:56.299Z,9.07
2023-03-02T01:58:23.329Z,8.82
2023-03-02T02:00:52.595Z,8.93
2023-03-02T02:03:23.563Z,9.45
2023-03-02T02:06:11.489Z,8.60
2023-03-02T02:08:38.677Z,9.07
2023-03-02T02:11:08.682Z,9.15
2023-03-02T02:13:35.442Z,8.73
2023-03-02T02:16:04.573Z,8.70
2023-03-02T02:18:31.403Z,9.48
2023-03-02T02:21:00.778Z,8.93
2023-03-02T02:24:00.564Z,9.05
2023-03-02T02:26:31.589Z,8.48
2023-03-02T02:29:26.913Z,8.77
2023-03-02T02:32:23.044Z,8.88
2023-03-02T02:35:02.101Z,9.00
2023-03-02T02:37:45.845Z,10.13
2023-03-02T02:40:19.195Z,10.60
2023-03-02T02:42:49.825Z,9.55
2023-03-02T02:45:25.540Z,9.18
2023-03-02T02:50:33.895Z,9.10
2023-03-02T02:53:12.341Z,8.68
2023-03-02T02:55:41.176Z,8.98
2023-03-02T02:58:27.890Z,9.32
2023-03-02T03:00:57.348Z,9.45
2023-03-02T03:03:33.866Z,9.20
2023-03-02T03:06:03.743Z,9.18
2023-03-02T03:08:49.248Z,8.80
2023-03-02T03:11:24.908Z,9.55
2023-03-02T03:13:57.420Z,8.95
2023-03-02T03:16:25.280Z,8.95
2023-03-02T03:18:53.025Z,9.15
2023-03-02T03:21:19.668Z,9.60
2023-03-02T03:23:49.779Z,9.18
2023-03-02T03:26:16.882Z,8.95
2023-03-02T03:28:46.127Z,8.80
2023-03-02T03:31:12.880Z,8.80
2023-03-02T03:33:39.558Z,8.85
2023-03-02T03:36:08.890Z,9.25
2023-03-02T03:38:40.184Z,8.63
2023-03-02T03:41:09.030Z,8.35
2023-03-02T03:43:38.460Z,9.57
2023-03-02T03:46:05.217Z,9.20
2023-03-02T03:48:36.629Z,8.27
2023-03-02T03:51:03.502Z,9.43
2023-03-02T03:53:32.718Z,8.60
2023-03-02T03:55:59.432Z,9.98
2023-03-02T03:58:28.593Z,8.80
2023-03-02T04:00:57.411Z,9.85
2023-03-02T04:03:25.421Z,8.63
2023-03-02T04:05:54.304Z,8.50
2023-03-02T04:08:23.383Z,9.60
2023-03-02T04:10:50.033Z,9.43
2023-03-02T04:13:19.122Z,8.57
2023-03-02T04:15:50.495Z,9.45
2023-03-02T04:18:17.141Z,9.55
2023-03-02T04:20:43.790Z,9.45
2023-03-02T04:23:10.494Z,8.90
2023-03-02T04:25:39.456Z,9.10
2023-03-02T04:28:06.107Z,8.85
2023-03-02T04:30:33.175Z,9.00
2023-03-02T04:33:02.329Z,8.43
2023-03-02T04:35:29.131Z,10.25
2023-03-02T04:37:58.004Z,9.10
2023-03-02T04:40:24.789Z,8.43
2023-03-02T04:42:51.464Z,9.15
2023-03-02T04:45:22.876Z,9.50
2023-03-02T04:47:49.536Z,9.35
2023-03-02T04:50:18.419Z,9.00
2023-03-02T04:52:45.143Z,9.23
2023-03-02T04:55:19.630Z,8.98
2023-03-02T04:57:51.094Z,10.38
2023-03-02T05:00:20.528Z,9.35
2023-03-02T05:02:47.550Z,9.40
2023-03-02T05:05:20.565Z,9.10
2023-03-02T05:07:50.368Z,9.30
2023-03-02T05:10:18.704Z,10.02
2023-03-02T05:12:54.995Z,9.60
2023-03-02T05:15:22.977Z,9.98
2023-03-02T05:17:49.639Z,9.63
2023-03-02T05:20:27.295Z,10.02
2023-03-02T05:22:57.658Z,9.88
2023-03-02T05:25:25.610Z,9.10
2023-03-02T05:27:53.005Z,8.88
2023-03-02T05:30:23.838Z,9.93
2023-03-02T05:32:54.355Z,9.13
2023-03-02T05:35:22.596Z,8.88
2023-03-02T05:37:49.429Z,10.23
2023-03-02T05:40:19.335Z,9.02
2023-03-02T05:42:48.492Z,9.32
2023-03-02T05:45:30.078Z,8.55
2023-03-02T05:47:56.913Z,9.57
2023-03-02T05:50:26.354Z,8.88
2023-03-02T05:52:52.992Z,8.98
2023-03-02T05:55:20.188Z,8.43
2023-03-02T05:57:49.204Z,9.27
2023-03-02T06:00:17.067Z,9.25
2023-03-02T06:02:46.361Z,9.55
2023-03-02T06:05:18.118Z,9.65
2023-03-02T06:07:45.630Z,8.93
2023-03-02T06:10:13.033Z,9.05
2023-03-02T06:12:44.788Z,9.18
2023-03-02T06:15:13.739Z,9.55
2023-03-02T06:17:45.436Z,9.63
2023-03-02T06:20:15.628Z,9.68
2023-03-02T06:22:46.598Z,9.63
2023-03-02T06:25:19.316Z,8.77
2023-03-02T06:27:51.548Z,9.60
2023-03-02T06:30:20.130Z,9.60
2023-03-02T06:32:46.995Z,9.70
2023-03-02T06:35:16.408Z,9.60
2023-03-02T06:37:46.110Z,9.45
2023-03-02T06:40:15.937Z,9.38
2023-03-02T06:42:43.131Z,10.25
2023-03-02T06:45:12.900Z,11.23
2023-03-02T06:47:42.022Z,10.88
2023-03-02T06:50:12.286Z,11.80
2023-03-02T06:52:41.184Z,10.52
2023-03-02T06:55:08.368Z,10.95
2023-03-02T06:57:37.520Z,10.55
2023-03-02T07:00:17.370Z,9.98
2023-03-02T07:02:50.038Z,10.40
2023-03-02T07:05:22.713Z,10.10
2023-03-02T07:07:52.068Z,11.75
2023-03-02T07:10:19.146Z,10.68
2023-03-02T07:12:45.882Z,11.35
2023-03-02T07:15:14.111Z,11.27
2023-03-02T07:17:42.658Z,10.77
2023-03-02T07:20:11.515Z,11.32
2023-03-02T07:22:40.557Z,10.15
2023-03-02T07:25:10.797Z,10.00
2023-03-02T07:27:42.627Z,11.13
2023-03-02T07:30:10.120Z,10.70
2023-03-02T07:32:41.657Z,12.95
2023-03-02T07:35:08.782Z,13.90
2023-03-02T07:37:35.425Z,12.82
2023-03-02T07:40:04.484Z,12.70
2023-03-02T07:42:31.137Z,11.75
2023-03-02T07:44:57.778Z,11.55
2023-03-02T07:47:27.211Z,10.68
2023-03-02T07:49:58.392Z,10.70
2023-03-02T07:52:25.213Z,10.25
2023-03-02T07:54:54.414Z,10.93
2023-03-02T07:57:21.093Z,10.82
2023-03-02T07:59:47.836Z,10.95
2023-03-02T08:02:20.242Z,10.50
2023-03-02T08:04:49.457Z,10.38
2023-03-02T08:07:21.466Z,9.73
2023-03-02T08:09:50.706Z,9.38
2023-03-02T08:12:17.435Z,9.95
2023-03-02T08:14:46.733Z,9.50
2023-03-02T08:17:13.403Z,9.80
2023-03-02T08:19:40.058Z,9.18
2023-03-02T08:22:09.227Z,9.23
2023-03-02T08:24:38.285Z,9.95
2023-03-02T08:27:05.274Z,9.13
2023-03-02T08:29:32.065Z,9.38
2023-03-02T08:31:59.296Z,9.00
2023-03-02T08:34:28.318Z,9.30
2023-03-02T08:36:57.274Z,9.25
2023-03-02T08:39:30.138Z,8.50
2023-03-02T08:41:57.159Z,9.10
2023-03-02T08:44:28.407Z,9.32
2023-03-02T08:46:57.207Z,9.07
2023-03-02T08:49:26.392Z,9.40
2023-03-02T08:51:56.310Z,9.98
2023-03-02T08:54:23.082Z,9.05
2023-03-02T08:56:50.297Z,9.35
2023-03-02T08:59:21.596Z,8.77
2023-03-02T09:01:50.427Z,8.73
2023-03-02T09:04:19.451Z,9.35
2023-03-02T09:06:48.452Z,8.82
2023-03-02T09:09:17.802Z,9.65
2023-03-02T09:11:44.991Z,9.07
2023-03-02T09:14:12.061Z,9.18
2023-03-02T09:16:38.847Z,9.05
2023-03-02T09:19:05.601Z,8.85
2023-03-02T09:21:32.564Z,8.75
2023-03-02T09:23:59.538Z,9.82
2023-03-02T09:26:28.799Z,9.88
2023-03-02T09:28:58.378Z,9.25
2023-03-02T09:31:30.476Z,9.05
2023-03-02T09:33:57.388Z,10.02
2023-03-02T09:36:25.825Z,9.65
2023-03-02T09:39:09.515Z,9.02
2023-03-02T09:42:08.468Z,8.52
2023-03-02T09:45:09.044Z,9.00
2023-03-02T09:48:05.356Z,9.07
2023-03-02T09:50:51.572Z,9.02
2023-03-02T09:55:46.978Z,9.23
2023-03-02T09:58:21.032Z,9.00
2023-03-02T10:00:51.046Z,9.43
2023-03-02T10:03:19.395Z,9.18
2023-03-02T10:05:56.058Z,9.27
2023-03-02T10:08:24.508Z,8.95
2023-03-02T10:10:57.821Z,9.38
2023-03-02T10:13:47.583Z,9.40
2023-03-02T10:16:45.833Z,8.35
2023-03-02T10:19:32.393Z,9.20
2023-03-02T10:22:14.256Z,8.45
2023-03-02T10:25:09.562Z,8.18
2023-03-02T10:27:45.669Z,8.63
2023-03-02T10:30:37.753Z,8.90
2023-03-02T10:33:13.488Z,8.20
2023-03-02T10:38:20.001Z,7.65
2023-03-02T10:40:59.877Z,8.68
2023-03-02T10:43:42.001Z,8.07
2023-03-02T10:46:12.673Z,8.15
2023-03-02T10:48:50.075Z,10.02
2023-03-02T10:51:34.352Z,8.50
2023-03-02T10:54:12.634Z,7.72
2023-03-02T10:56:43.666Z,8.63
2023-03-02T10:59:31.633Z,9.07
2023-03-02T11:02:03.677Z,8.10
2023-03-02T11:04:31.116Z,8.30
2023-03-02T11:07:08.904Z,8.07
2023-03-02T11:09:35.561Z,8.45
2023-03-02T11:12:02.731Z,8.05
2023-03-02T11:14:29.549Z,9.13
2023-03-02T11:16:56.965Z,9.38
2023-03-02T11:19:42.342Z,8.93
2023-03-02T11:22:38.360Z,9.07
2023-03-02T11:25:19.730Z,8.43
2023-03-02T11:27:48.920Z,8.82
2023-03-02T11:30:27.006Z,8.40
2023-03-02T11:32:56.418Z,8.65
2023-03-02T11:35:47.222Z,8.93
2023-03-02T11:38:19.834Z,8.35
2023-03-02T11:40:58.861Z,8.77
2023-03-02T11:43:27.767Z,8.95
2023-03-02T11:46:06.671Z,9.50
2023-03-02T11:48:35.288Z,8.43
2023-03-02T11:51:15.723Z,8.18
2023-03-02T11:53:52.959Z,8.02
2023-03-02T11:56:22.465Z,7.80
2023-03-02T11:58:58.552Z,8.73
2023-03-02T12:01:27.333Z,9.00
2023-03-02T12:03:54.540Z,9.27
2023-03-02T12:06:24.970Z,8.73
2023-03-02T12:09:12.332Z,8.90
2023-03-02T12:11:41.117Z,8.80
2023-03-02T12:14:38.793Z,7.93
2023-03-02T12:17:19.237Z,8.57
2023-03-02T12:19:50.730Z,9.02
2023-03-02T12:22:28.434Z,8.80
2023-03-02T12:25:20.177Z,8.27
2023-03-02T12:27:49.240Z,8.35
2023-03-02T12:30:16.143Z,8.40
2023-03-02T12:32:58.643Z,8.32
2023-03-02T12:35:26.382Z,7.88
2023-03-02T12:38:05.727Z,7.88
2023-03-02T12:40:47.051Z,7.78
2023-03-02T12:43:19.643Z,8.10
2023-03-02T12:46:08.067Z,7.80
2023-03-02T12:48:45.816Z,7.65
2023-03-02T12:51:24.921Z,7.90
2023-03-02T12:54:06.007Z,7.85
2023-03-02T12:56:34.025Z,7.35
2023-03-02T12:59:00.980Z,7.90
2023-03-02T13:01:30.077Z,7.53
2023-03-02T13:03:59.658Z,7.95
2023-03-02T13:06:30.578Z,7.18
2023-03-02T13:09:01.514Z,7.70
2023-03-02T13:11:32.965Z,7.43
2023-03-02T13:14:03.616Z,6.85
2023-03-02T13:16:33.574Z,7.18
2023-03-02T13:19:03.266Z,7.45
2023-03-02T13:21:40.816Z,7.15
2023-03-02T13:24:49.015Z,7.10
2023-03-02T13:27:22.804Z,7.88
2023-03-02T13:29:53.152Z,7.32
2023-03-02T13:32:27.011Z,6.88
2023-03-02T13:34:58.622Z,7.13
2023-03-02T13:37:40.175Z,7.22
2023-03-02T13:40:26.822Z,6.45
2023-03-02T13:42:55.038Z,6.55
2023-03-02T13:45:24.803Z,6.97
2023-03-02T13:47:54.856Z,7.60
2023-03-02T13:50:26.076Z,7.47
2023-03-02T13:52:56.411Z,6.90
2023-03-02T13:55:23.766Z,6.72
2023-03-02T13:57:52.820Z,6.78
2023-03-02T14:00:24.750Z,6.57
2023-03-02T14:02:51.954Z,6.80
2023-03-02T14:05:27.093Z,5.70
2023-03-02T14:07:53.949Z,6.45
2023-03-02T14:10:25.944Z,6.60
2023-03-02T14:13:05.258Z,7.03
2023-03-02T14:15:32.529Z,6.22
2023-03-02T14:18:00.056Z,6.00
2023-03-02T14:20:26.698Z,6.18
2023-03-02T14:22:53.331Z,6.32
2023-03-02T14:25:22.504Z,6.20
2023-03-02T14:27:51.780Z,5.80
2023-03-02T14:30:22.128Z,5.43
2023-03-02T14:32:51.336Z,6.00
2023-03-02T14:35:20.471Z,5.35
2023-03-02T14:37:49.588Z,5.40
2023-03-02T14:40:28.307Z,5.93
2023-03-02T14:42:55.278Z,5.72
2023-03-02T14:45:24.420Z,5.40
2023-03-02T14:47:53.630Z,5.60
2023-03-02T14:50:23.637Z,5.28
2023-03-02T14:52:55.835Z,5.28
2023-03-02T14:55:29.900Z,4.80
2023-03-02T14:58:04.082Z,5.30
2023-03-02T15:00:31.383Z,5.15
2023-03-02T15:03:00.990Z,4.93
2023-03-02T15:05:30.309Z,5.18
2023-03-02T15:08:01.600Z,5.60
2023-03-02T15:10:28.299Z,4.70
2023-03-02T15:12:55.033Z,5.13
2023-03-02T15:15:22.299Z,5.35
2023-03-02T15:17:51.856Z,5.35
2023-03-02T15:20:20.755Z,5.45
2023-03-02T15:22:47.394Z,5.32
2023-03-02T15:25:17.166Z,4.90
2023-03-02T15:27:43.855Z,4.88
2023-03-02T15:30:12.177Z,5.30
2023-03-02T15:32:41.389Z,5.05
2023-03-02T15:35:12.431Z,5.30
2023-03-02T15:37:41.991Z,4.65
2023-03-02T15:40:11.744Z,4.60
2023-03-02T15:42:40.948Z,4.75
2023-03-02T15:45:07.928Z,4.50
2023-03-02T15:47:34.654Z,4.70
2023-03-02T15:50:01.333Z,4.85
2023-03-02T15:52:34.856Z,4.45
2023-03-02T15:55:03.674Z,4.45
2023-03-02T15:57:30.326Z,4.70
2023-03-02T15:59:57.013Z,4.97
2023-03-02T16:02:26.095Z,4.50
2023-03-02T16:04:55.080Z,4.80
2023-03-02T16:07:21.729Z,4.75
2023-03-02T16:09:53.065Z,4.82
2023-03-02T16:12:23.243Z,5.03
2023-03-02T16:14:49.927Z,4.93
2023-03-02T16:17:19.064Z,5.00
2023-03-02T16:19:46.170Z,4.60
2023-03-02T16:22:12.801Z,4.20
2023-03-02T16:24:40.937Z,4.68
2023-03-02T16:27:08.558Z,4.32
2023-03-02T16:29:35.319Z,4.05
2023-03-02T16:32:06.468Z,4.43
2023-03-02T16:34:33.227Z,4.07
2023-03-02T16:36:59.936Z,4.45
2023-03-02T16:39:26.654Z,4.20
2023-03-02T16:41:53.452Z,4.45
2023-03-02T16:44:22.960Z,4.25
2023-03-02T16:46:56.327Z,4.15
2023-03-02T16:49:26.307Z,4.55
2023-03-02T16:51:59.525Z,4.32
2023-03-02T16:54:28.857Z,4.68
2023-03-02T16:56:55.587Z,4.75
2023-03-02T16:59:22.322Z,4.47
2023-03-02T17:01:53.787Z,4.22
2023-03-02T17:04:21.957Z,4.93
2023-03-02T17:07:00.483Z,4.93
2023-03-02T17:09:28.116Z,5.68
2023-03-02T17:11:57.228Z,6.00
2023-03-02T17:14:23.908Z,6.65
2023-03-02T17:16:53.131Z,6.63
2023-03-02T17:19:22.595Z,6.88
2023-03-02T17:21:49.392Z,6.40
2023-03-02T17:24:16.032Z,6.13
2023-03-02T17:26:42.795Z,6.53
2023-03-02T17:29:11.658Z,6.20
2023-03-02T17:31:42.791Z,5.63
2023-03-02T17:34:14.310Z,6.22
2023-03-02T17:36:41.753Z,6.10
2023-03-02T17:39:08.511Z,6.63
2023-03-02T17:41:37.827Z,6.25
2023-03-02T17:44:05.150Z,6.30
2023-03-02T17:46:32.729Z,6.72
2023-03-02T17:49:02.842Z,6.05
2023-03-02T17:51:29.786Z,6.90
2023-03-02T17:53:56.754Z,6.60
2023-03-02T17:56:25.867Z,6.53
2023-03-02T17:59:00.394Z,5.95
2023-03-02T18:01:30.761Z,6.05
2023-03-02T18:03:57.506Z,5.90
2023-03-02T18:06:24.469Z,5.93
2023-03-02T18:08:53.554Z,6.18
2023-03-02T18:11:23.425Z,6.40
2023-03-02T18:13:50.721Z,6.55
2023-03-02T18:16:17.476Z,7.00
2023-03-02T18:18:44.193Z,7.70
2023-03-02T18:21:10.892Z,8.85
2023-03-02T18:23:37.546Z,9.10
2023-03-02T18:26:04.300Z,8.23
2023-03-02T18:28:33.145Z,7.90
2023-03-02T18:31:00.106Z,8.45
2023-03-02T18:33:29.076Z,8.13
2023-03-02T18:35:55.854Z,9.20
2023-03-02T18:38:30.782Z,9.93
2023-03-02T18:41:00.548Z,10.60
2023-03-02T18:43:31.014Z,10.60
2023-03-02T18:46:00.373Z,11.80
2023-03-02T18:48:27.247Z,12.98
2023-03-02T18:50:54.532Z,13.00
2023-03-02T18:53:26.771Z,12.80
2023-03-02T18:55:56.542Z,13.52
2023-03-02T18:58:33.887Z,14.43
2023-03-02T19:01:01.194Z,13.18
2023-03-02T19:03:28.684Z,13.00
2023-03-02T19:05:57.886Z,13.63
2023-03-02T19:08:27.402Z,12.73
2023-03-02T19:10:54.703Z,12.27
2023-03-02T19:13:24.409Z,12.57
2023-03-02T19:15:54.727Z,11.90
2023-03-02T19:18:23.873Z,12.23
2023-03-02T19:20:54.182Z,13.10
2023-03-02T19:23:23.804Z,12.82
2023-03-02T19:25:53.692Z,13.85
2023-03-02T19:28:21.618Z,14.40
2023-03-02T19:30:48.828Z,16.40
2023-03-02T19:33:15.530Z,19.00
2023-03-02T19:35:44.831Z,15.05
2023-03-02T19:38:14.073Z,14.20
2023-03-02T19:40:41.806Z,15.02
2023-03-02T19:43:10.699Z,14.57
2023-03-02T19:45:38.108Z,15.63
2023-03-02T19:48:13.501Z,14.63
2023-03-02T19:50:43.333Z,16.10
2023-03-02T19:53:12.118Z,15.25
2023-03-02T19:55:39.534Z,15.75
2023-03-02T19:58:07.864Z,14.98
2023-03-02T20:00:35.957Z,15.37
2023-03-02T20:03:03.587Z,15.07
2023-03-02T20:05:30.524Z,15.25
2023-03-02T20:08:01.773Z,17.73
2023-03-02T20:10:35.928Z,19.00
2023-03-02T20:13:03.406Z,18.88
2023-03-02T20:15:32.061Z,18.13
2023-03-02T20:18:02.593Z,17.23
2023-03-02T20:20:30.953Z,16.95
2023-03-02T20:22:58.711Z,17.67
2023-03-02T20:25:30.928Z,18.40
2023-03-02T20:27:58.065Z,19.13
2023-03-02T20:30:38.658Z,16.45
2023-03-02T20:33:10.150Z,17.27
2023-03-02T20:35:44.682Z,16.63
2023-03-02T20:38:28.072Z,15.90
2023-03-02T20:41:01.594Z,16.05
2023-03-02T20:43:29.124Z,14.70
2023-03-02T20:45:56.536Z,13.70
2023-03-02T20:48:23.288Z,14.95
2023-03-02T20:50:51.405Z,15.75
2023-03-02T20:53:19.030Z,17.98
2023-03-02T20:55:48.446Z,17.02
2023-03-02T20:58:15.250Z,17.05
2023-03-02T21:00:44.650Z,16.67
2023-03-02T21:03:11.590Z,17.67
2023-03-02T21:05:43.262Z,17.98
2023-03-02T21:08:14.679Z,18.65
2023-03-02T21:10:45.847Z,19.13
2023-03-02T21:13:15.415Z,18.67
2023-03-02T21:15:44.723Z,18.05
2023-03-02T21:18:11.589Z,17.10
2023-03-02T21:20:39.129Z,18.13
2023-03-02T21:23:11.060Z,16.85
2023-03-02T21:25:38.087Z,16.80
2023-03-02T21:28:05.388Z,19.23
2023-03-02T21:30:34.880Z,18.65
2023-03-02T21:33:04.527Z,16.58
2023-03-02T21:35:33.436Z,18.77
2023-03-02T21:38:04.037Z,17.27
2023-03-02T21:40:37.692Z,17.65
2023-03-02T21:43:12.041Z,17.27
2023-03-02T21:45:39.693Z,17.70
2023-03-02T21:48:07.322Z,16.85
2023-03-02T21:50:37.359Z,18.27
2023-03-02T21:53:05.189Z,17.48
2023-03-02T21:55:35.143Z,17.92
2023-03-02T21:58:01.903Z,18.33
2023-03-02T22:00:32.833Z,19.30
2023-03-02T22:03:03.068Z,18.23
2023-03-02T22:05:33.520Z,19.38
2023-03-02T22:08:02.991Z,19.20
2023-03-02T22:10:38.869Z,20.05
2023-03-02T22:13:30.128Z,19.45
2023-03-02T22:16:15.270Z,20.33
2023-03-02T22:18:43.869Z,20.40
2023-03-02T22:21:31.805Z,20.70
2023-03-02T22:24:24.837Z,20.10
2023-03-02T22:27:00.078Z,20.25
2023-03-02T22:29:40.586Z,19.27
2023-03-02T22:32:16.693Z,20.50
2023-03-02T22:34:44.510Z,19.23
2023-03-02T22:37:17.650Z,19.42
2023-03-02T22:39:44.805Z,20.77
2023-03-02T22:42:15.770Z,19.50
2023-03-02T22:44:51.336Z,20.33
2023-03-02T22:47:19.777Z,21.60
2023-03-02T22:49:48.766Z,21.35
2023-03-02T22:52:24.974Z,20.85
2023-03-02T22:54:55.113Z,21.05
2023-03-02T22:57:36.293Z,21.98
2023-03-02T23:00:14.018Z,20.67
2023-03-02T23:02:42.968Z,20.65
2023-03-02T23:05:29.442Z,21.02
2023-03-02T23:08:20.976Z,21.75
2023-03-02T23:10:48.384Z,23.35
2023-03-02T23:13:20.686Z,22.63
2023-03-02T23:15:50.881Z,22.65
2023-03-02T23:18:26.904Z,20.85
2023-03-02T23:20:56.281Z,21.50
2023-03-02T23:23:24.573Z,22.00
2023-03-02T23:25:51.194Z,22.60
2023-03-02T23:28:17.865Z,24.15
2023-03-02T23:30:45.355Z,22.33
2023-03-02T23:33:12.055Z,23.05
2023-03-02T23:35:41.898Z,22.83
2023-03-02T23:38:11.052Z,23.85
2023-03-02T23:40:37.802Z,23.65
2023-03-02T23:43:04.495Z,24.80
2023-03-02T23:45:33.359Z,24.70
2023-03-02T23:48:02.405Z,25.80
2023-03-02T23:50:29.182Z,24.20
2023-03-02T23:52:55.812Z,25.10
2023-03-02T23:55:22.519Z,24.52
2023-03-02T23:57:49.157Z,25.90
